NCAR-RAP Real-Time Weather Data

Output produced by METARs form (23 February 2020  02:38 UTC)
found at http://weather.rap.ucar.edu/surface/
 
KLAS 230156Z 00000KT 10SM SCT039 BKN049 BKN120 12/07 A2994 RMK AO2 SLP132 T01170072
KLAS 230103Z 02005KT 10SM SCT041 SCT060 BKN090 11/08 A2993 RMK AO2 T01110078
KLAS 230056Z 02006KT 10SM BKN026 BKN085 BKN160 11/08 A2992 RMK AO2 TSE05 SLP127 TS MOV NE T01110078
KLAS 230023Z 04010KT 10SM SCT014 BKN024 OVC080 12/09 A2992 RMK AO2 TSE05 TS MOV NE T01170089
KLAS 230005Z 04007KT 10SM SCT030 SCT050 OVC085 12/08 A2992 RMK AO2 TSE05 TS MOV NE T01220083
KLAS 222356Z 05006KT 10SM TS SCT037 OVC085 12/08 A2991 RMK AO2 RAB23E55 TSE05B15 SLP124 OCNL LTGICCC NE TS NE MOV NE P0006 60012 T01170083 10150 20111 55002
KLAS 222322Z 10006KT 10SM TS OVC040 13/07 A2991 RMK AO2 TSE05B15 OCNL LTGICCC VC SW TS VC SW MOV NE T01280067
KLAS 222316Z 09009KT 10SM TS FEW031 OVC043 13/07 A2991 RMK AO2 TSE05B15 OCNL LTGICCC VC SW T01280067
KLAS 222311Z 11008KT 10SM VCTS OVC043 13/07 A2991 RMK AO2 LTG DSNT SW TSE05 T01280067
KLAS 222256Z 07008KT 10SM BKN043 BKN060 OVC075 13/07 A2991 RMK AO2 RAB35E52 SLP120 P0000 T01330072
KLAS 222156Z 05011KT 10SM FEW035 BKN050 BKN095 14/07 A2989 RMK AO2 SLP115 T01440072
KLAS 222056Z 03007KT 10SM FEW060 BKN095 14/06 A2992 RMK AO2 SLP124 60006 T01440061 58019
KLAS 221956Z 03007KT 10SM FEW040 SCT060 BKN095 13/07 A2995 RMK AO2 SLP134 T01330067
KLAS 221856Z 31005KT 10SM FEW040 SCT055 BKN090 12/06 A2997 RMK AO2 RAE50 SLP141 P0006 T01170061
KLAS 221756Z 15004KT 10SM -RA SCT040 BKN060CB OVC100 12/04 A2998 RMK AO2 RAB20 TSE43 PRESRR SLP146 CB N-E P0001 60005 T01220039 10150 20111 53009
KLAS 221749Z 14005KT 10SM -RA SCT040 BKN060CB OVC100 13/02 A2997 RMK AO2 RAB20 TSE43 CB N-E P0000 T01330022
KLAS 221656Z 26003KT 10SM TS BKN070CB BKN100 14/03 A2995 RMK AO2 TSB20 SLP135 OCNL LTGICCC NE-SE TS NE-SE MOV N T01440033
KLAS 221620Z 30005KT 10SM TS BKN070CB BKN100 15/03 A2995 RMK AO2 TSB20 OCNL LTGICCC W-NW TS W-NW MOV N T01500033
KLAS 221556Z 00000KT 10SM BKN070 BKN100 14/04 A2996 RMK AO2 SLP135 T01440044
KLAS 221456Z 28004KT 10SM BKN070 BKN100 13/06 A2995 RMK AO2 RAE1357 SLP133 P0000 60004 T01280056 56002
KLAS 221356Z 21003KT 10SM -RA BKN070 OVC090 12/04 A2995 RMK AO2 LTG DSNT NW RAB33 SLP134 P0004 T01170044
KLAS 221256Z 27003KT 10SM SCT075 BKN100 13/03 A2996 RMK AO2 RAB01E34 SLP134 P0000 T01280033
KLAS 221156Z 30003KT 10SM SCT075 BKN100 12/02 A2996 RMK AO2 RAB38E55 SLP135 P0001 60001 70001 T01220017 10150 20122 58016
KLAS 221056Z 00000KT 10SM FEW080 BKN100 13/M03 A2998 RMK AO2 RAB31E43 SLP142 P0000 T01331028
KLAS 220956Z 21004KT 10SM FEW080 BKN110 13/M06 A3000 RMK AO2 SLP148 T01331061
KLAS 220856Z 21003KT 10SM BKN120 13/M07 A3001 RMK AO2 SLP152 T01331067 58017
KLAS 220756Z 21004KT 10SM BKN120 13/M07 A3004 RMK AO2 SLP162 T01281067 402060072
KLAS 220656Z 28003KT 10SM SCT120 14/M08 A3005 RMK AO2 SLP168 T01391078
KLAS 220556Z 25003KT 10SM SCT110 BKN150 14/M07 A3006 RMK AO2 SLP172 T01391072 10200 20139 58000
KLAS 220456Z 24003KT 10SM SCT110 BKN150 BKN250 15/M08 A3007 RMK AO2 SLP175 T01501078
KLAS 220356Z 26004KT 10SM FEW110 FEW150 SCT250 17/M08 A3006 RMK AO2 SLP173 T01671083
KLAS 220256Z 25003KT 10SM FEW110 FEW150 SCT250 18/M09 A3007 RMK AO2 SLP175 T01831094 55000
KLAS 220156Z 00000KT 10SM FEW110 FEW150 SCT250 19/M09 A3005 RMK AO2 SLP167 T01891094
KLAS 220056Z 31006KT 10SM SCT110 BKN150 BKN250 19/M11 A3004 RMK AO2 SLP166 T01941106
KLAS 212356Z VRB03KT 10SM FEW110 SCT150 SCT250 19/M11 A3007 RMK AO2 SLP175 T01941111 10206 20139 56018
KLAS 212256Z 35004KT 10SM SCT110 BKN150 BKN250 20/M11 A3008 RMK AO2 SLP178 T02001111
KLAS 212156Z 10003KT 10SM FEW110 FEW150 SCT250 19/M12 A3010 RMK AO2 SLP185 T01941117
KLAS 212056Z VRB05KT 10SM FEW150 FEW250 19/M12 A3012 RMK AO2 SLP193 T01891122 58032
KLAS 211956Z 07006KT 10SM FEW150 FEW250 18/M12 A3017 RMK AO2 SLP210 T01781117
KLAS 211856Z VRB04KT 10SM FEW250 16/M11 A3020 RMK AO2 SLP222 T01611111
KLAS 211756Z 09004KT 10SM FEW250 14/M11 A3022 RMK AO2 SLP229 T01441106 10144 20072 50003
KLAS 211656Z 18003KT 10SM FEW250 13/M09 A3024 RMK AO2 SLP235 T01281089
KLAS 211556Z 00000KT 10SM FEW150 FEW250 11/M08 A3023 RMK AO2 SLP232 T01061083
KLAS 211456Z 20003KT 10SM FEW180 SCT250 08/M09 A3021 RMK AO2 SLP226 T00831089 51012
KLAS 211356Z 00000KT 10SM BKN250 08/M08 A3020 RMK AO2 SLP222 T00831083
KLAS 211256Z 00000KT 10SM BKN250 08/M09 A3019 RMK AO2 SLP218 T00831089
KLAS 211156Z 23003KT 10SM BKN250 07/M08 A3018 RMK AO2 SLP214 T00721083 10111 20072 55009
KLAS 211056Z 21004KT 10SM FEW250 08/M09 A3018 RMK AO2 SLP213 T00781089
KLAS 210956Z 20005KT 10SM FEW250 08/M08 A3019 RMK AO2 SLP218 T00831083
KLAS 210856Z 22005KT 10SM SCT250 09/M09 A3020 RMK AO2 SLP223 T00891094 50001
KLAS 210756Z 19004KT 10SM BKN250 10/M09 A3021 RMK AO2 SLP224 T01001094 401830050
KLAS 210656Z 23003KT 10SM BKN250 11/M10 A3020 RMK AO2 SLP223 T01061100
KLAS 210556Z 20003KT 10SM SCT250 11/M09 A3020 RMK AO2 SLP224 T01111094 10183 20111 55001
KLAS 210456Z 27004KT 10SM CLR 12/M09 A3020 RMK AO2 SLP223 T01221094
KLAS 210356Z 26004KT 10SM CLR 13/M10 A3020 RMK AO2 SLP224 T01331100
KLAS 210256Z 00000KT 10SM CLR 16/M11 A3020 RMK AO2 SLP224 T01611111 53004